Città:
 IT 
 EN 
 FR 
 DE 
 ES 

Dati meteo attuali Milano

Datameteo.com - Informazione e servizi avanzati per la meteorologia,la nautica e la protezione civile
Milano / Linate, Italy
Alba: 7:28 AM UTC1
Tramonto: 4:46 PM UTC1
 Lat: 45.42N, Lon: 9.27E
ICAO Used: LIML
Condizioni Meteo Attuali Aggiornate: 22.11.2019 alle 04:20 UTC
Debole Pioggia
Debole Pioggia
Coperto
Debole Pioggia
Temp: 10°C
Umidita': 94%
Direz/Vel. Vento: ESE 8 / KT raffiche
Pressione: 1012 hPa
Punto di rugiada: 9°C
Temperatura percepita: 9°C
Visibilitą: 4000 m. (discreta)
Temperatura percepita in
presenza di vento (Wind Chill)
:
7°C
T. max (ultime 24 ore): 10°C
T. min (ultime 24 ore): 10°C


METAR ORIGINALE
LIML 220420Z 11008KT 4000 -RA BR BKN007 BKN030 10/09 Q1012 NOSIG



[ Indietro ]


Elaborazione dati by Datameteo.com - Lrc srl Copyright ©, All rights reserved.
Visualizza la versione web
©2010 Datameteo.com
weather mobile,mobile weather,meteo mobile,mobile meteo,meteo sul telefonino datameteo.com